Time;durP1;ratioP1;P1;durP2;ratioP2;P2;SDS_P1;SDS_P2;PMS_P1;PMS_P2;Temp;Humidity;BMP_temperature;BMP_pressure;BME280_temperature;BME280_humidity;BME280_pressure;Samples;Min_cycle;Max_cycle;Signal;HPM_P1;HPM_P2
2022/09/22 00:00:56;;;;;;;14.38;12.77;;;;;;;6.90;100.00;102428.47;5028130;28;20025;-64
2022/09/22 00:03:21;;;;;;;14.25;13.15;;;;;;;6.86;100.00;102427.34;5028587;28;20035;-65
2022/09/22 00:05:46;;;;;;;15.00;13.30;;;;;;;6.83;100.00;102416.84;5028228;28;20079;-65
2022/09/22 00:08:12;;;;;;;14.57;13.30;;;;;;;6.79;100.00;102407.06;5027784;28;20055;-65
2022/09/22 00:10:37;;;;;;;14.70;13.48;;;;;;;6.77;100.00;102411.22;5027750;28;20263;-64
2022/09/22 00:13:02;;;;;;;14.48;13.25;;;;;;;6.75;100.00;102415.34;5027414;28;20083;-65
2022/09/22 00:15:29;;;;;;;15.07;13.25;;;;;;;6.72;100.00;102416.03;5027853;28;20061;-64
2022/09/22 00:17:54;;;;;;;14.27;13.15;;;;;;;6.69;100.00;102414.13;5027368;28;20026;-65
2022/09/22 00:20:19;;;;;;;14.90;13.43;;;;;;;6.65;100.00;102413.81;5028106;28;20028;-64
2022/09/22 00:22:49;;;;;;;14.10;12.93;;;;;;;6.64;100.00;102417.19;5027751;28;20402;-64
2022/09/22 00:25:15;;;;;;;14.07;12.85;;;;;;;6.61;100.00;102410.09;5027853;28;20029;-65
2022/09/22 00:27:41;;;;;;;15.38;14.07;;;;;;;6.60;100.00;102413.47;5027626;28;20025;-65
2022/09/22 00:30:07;;;;;;;14.48;13.10;;;;;;;6.60;100.00;102416.94;5027012;28;20185;-65
2022/09/22 00:32:32;;;;;;;16.00;14.63;;;;;;;6.59;100.00;102414.25;5027760;28;20041;-64
2022/09/22 00:34:58;;;;;;;16.02;14.13;;;;;;;6.60;100.00;102416.06;5027737;28;20025;-65
2022/09/22 00:37:23;;;;;;;15.80;13.95;;;;;;;6.58;100.00;102417.63;5027778;28;20033;-64
2022/09/22 00:39:48;;;;;;;15.20;13.87;;;;;;;6.56;100.00;102416.59;5027299;28;20128;-64
2022/09/22 00:42:14;;;;;;;15.80;14.15;;;;;;;6.54;100.00;102405.28;5026817;28;20057;-64
2022/09/22 00:44:42;;;;;;;14.55;13.05;;;;;;;6.52;100.00;102412.00;5027745;28;20100;-64
2022/09/22 00:47:16;;;;;;;15.23;13.90;;;;;;;6.51;100.00;102407.63;5027664;28;20061;-64
2022/09/22 00:49:44;;;;;;;15.00;13.70;;;;;;;6.48;100.00;102406.63;5027734;28;20369;-64
2022/09/22 00:52:12;;;;;;;13.95;12.75;;;;;;;6.45;100.00;102401.25;5027230;28;20037;-64
2022/09/22 00:54:38;;;;;;;13.77;12.68;;;;;;;6.43;100.00;102409.63;5027563;28;20022;-64
2022/09/22 00:57:10;;;;;;;15.15;13.70;;;;;;;6.41;100.00;102404.38;5027388;28;20079;-64
2022/09/22 00:59:35;;;;;;;;;;;;;;;6.37;100.00;102404.91;5027749;28;20021;-64
2022/09/22 01:02:01;;;;;;;13.43;12.23;;;;;;;6.35;100.00;102393.63;5027712;28;19996;-64
2022/09/22 01:04:27;;;;;;;14.23;13.02;;;;;;;6.31;100.00;102395.09;5027395;28;20022;-64
2022/09/22 01:06:55;;;;;;;14.73;13.40;;;;;;;6.29;100.00;102388.00;5026759;28;20033;-64
2022/09/22 01:09:22;;;;;;;13.68;12.48;;;;;;;6.29;100.00;102380.28;5027137;28;20036;-64
2022/09/22 01:11:47;;;;;;;14.50;13.02;;;;;;;6.28;100.00;102383.66;5026986;28;20026;-64
2022/09/22 01:14:34;;;;;;;15.40;14.05;;;;;;;6.29;100.00;102382.88;5009026;28;20033;-64
2022/09/22 01:17:19;;;;;;;14.38;13.15;;;;;;;6.28;100.00;102383.66;5026304;28;20432;-64
2022/09/22 01:20:23;;;;;;;14.30;13.13;;;;;;;6.23;100.00;102376.47;5026848;28;20032;-65
2022/09/22 01:23:20;;;;;;;15.02;13.73;;;;;;;6.18;100.00;102375.25;5026194;28;20064;-64
2022/09/22 01:26:10;;;;;;;13.77;12.67;;;;;;;6.14;100.00;102378.34;5031275;28;20057;-64
2022/09/22 01:29:07;;;;;;;14.70;13.48;;;;;;;6.12;100.00;102369.63;5031093;28;20471;-64
2022/09/22 01:31:38;;;;;;;15.10;13.60;;;;;;;6.10;100.00;102372.09;5030241;28;20548;-64
2022/09/22 01:34:06;;;;;;;14.45;12.98;;;;;;;6.10;100.00;102371.19;5031104;28;20033;-64
2022/09/22 01:36:53;;;;;;;13.38;12.25;;;;;;;6.08;100.00;102372.78;5030956;28;20045;-64
2022/09/22 01:39:42;;;;;;;14.32;13.05;;;;;;;6.05;100.00;102367.31;5012707;28;20354;-64
2022/09/22 01:42:36;;;;;;;14.23;13.02;;;;;;;6.05;100.00;102372.47;5030210;28;20046;-64
2022/09/22 01:45:07;;;;;;;13.68;12.57;;;;;;;6.03;100.00;102358.63;5027576;28;20095;-65
2022/09/22 01:47:39;;;;;;;13.15;12.05;;;;;;;6.00;100.00;102365.31;5030329;28;20029;-64
2022/09/22 01:50:46;;;;;;;13.90;12.70;;;;;;;5.98;100.00;102359.16;5030403;28;20125;-64
2022/09/22 01:53:17;;;;;;;15.00;13.70;;;;;;;5.96;100.00;102353.00;5029392;28;20033;-64
2022/09/22 01:55:50;;;;;;;;;;;;;;;5.95;100.00;102356.38;5030703;28;20111;-64
2022/09/22 01:58:19;;;;;;;14.65;13.35;;;;;;;5.94;100.00;102354.56;5030761;28;20144;-64
2022/09/22 02:00:52;;;;;;;14.40;13.07;;;;;;;5.91;100.00;102349.19;5030047;28;20036;-64
2022/09/22 02:03:33;;;;;;;14.70;13.50;;;;;;;5.87;100.00;102347.16;5030505;28;20110;-65
2022/09/22 02:06:07;;;;;;;14.75;13.30;;;;;;;5.86;100.00;102342.81;5030247;28;20040;-64
2022/09/22 02:09:00;;;;;;;14.90;13.47;;;;;;;5.83;100.00;102340.88;5030533;28;20029;-64
2022/09/22 02:11:25;;;;;;;14.33;13.13;;;;;;;5.81;100.00;102337.28;5030129;28;20130;-64
2022/09/22 02:13:51;;;;;;;15.03;13.57;;;;;;;5.80;100.00;102344.91;5029984;28;20128;-64
2022/09/22 02:16:18;;;;;;;14.93;13.63;;;;;;;5.80;100.00;102342.31;5030230;28;20476;-64
2022/09/22 02:18:52;;;;;;;14.60;13.40;;;;;;;5.77;100.00;102346.44;5030551;28;20542;-64
2022/09/22 02:21:18;;;;;;;14.27;12.90;;;;;;;5.74;100.00;102338.50;5030119;28;20021;-64
2022/09/22 02:23:45;;;;;;;14.25;13.00;;;;;;;5.72;100.00;102341.75;5030366;28;20659;-64
2022/09/22 02:26:14;;;;;;;14.23;12.97;;;;;;;5.68;100.00;102329.44;5030016;28;20017;-64
2022/09/22 02:28:42;;;;;;;13.80;12.53;;;;;;;5.67;100.00;102328.53;5029874;28;20031;-64
2022/09/22 02:31:09;;;;;;;15.73;13.10;;;;;;;5.64;100.00;102333.44;5029719;28;20416;-64
2022/09/22 02:33:37;;;;;;;15.53;14.00;;;;;;;5.61;100.00;102334.09;5028603;28;20029;-64
2022/09/22 02:36:12;;;;;;;13.93;12.83;;;;;;;5.59;100.00;102327.97;5030422;28;20537;-64
2022/09/22 02:38:51;;;;;;;14.23;13.03;;;;;;;5.60;100.00;102326.28;5029599;28;20108;-64
2022/09/22 02:41:35;;;;;;;14.80;13.60;;;;;;;5.59;100.00;102329.63;5029534;28;20029;-64
2022/09/22 02:44:07;;;;;;;14.23;13.03;;;;;;;5.58;100.00;102325.25;4989430;28;20042;-64
2022/09/22 02:46:40;;;;;;;14.83;13.43;;;;;;;5.56;100.00;102324.25;4990298;28;20031;-64
2022/09/22 02:49:12;;;;;;;15.10;13.70;;;;;;;5.55;100.00;102314.72;4990078;28;20101;-64
2022/09/22 02:51:37;;;;;;;;;;;;;;;5.53;100.00;102315.53;4990627;28;20032;-64
2022/09/22 02:54:03;;;;;;;14.67;13.43;;;;;;;5.52;100.00;102318.84;4989827;28;19914;-64
2022/09/22 02:56:28;;;;;;;15.53;14.03;;;;;;;5.50;100.00;102310.16;4989580;28;20073;-64
2022/09/22 02:58:53;;;;;;;15.07;13.87;;;;;;;5.48;100.00;102306.56;4990572;28;20513;-64
2022/09/22 03:01:19;;;;;;;15.83;14.53;;;;;;;5.44;100.00;102309.69;4990681;28;20081;-64
2022/09/22 03:03:44;;;;;;;16.37;14.97;;;;;;;5.41;100.00;102307.75;4990273;28;20489;-64
2022/09/22 03:06:09;;;;;;;17.13;15.73;;;;;;;5.40;100.00;102307.63;4989477;28;20030;-64
2022/09/22 03:08:35;;;;;;;17.13;15.63;;;;;;;5.37;100.00;102309.97;4989852;28;20141;-64
2022/09/22 03:11:00;;;;;;;16.40;15.00;;;;;;;5.35;100.00;102311.53;4989134;28;20096;-64
2022/09/22 03:13:25;;;;;;;17.83;16.33;;;;;;;5.32;100.00;102304.50;4989881;28;20042;-64
2022/09/22 03:15:50;;;;;;;17.60;16.00;;;;;;;5.31;100.00;102306.94;4989739;28;20026;-64
2022/09/22 03:18:16;;;;;;;18.53;16.77;;;;;;;5.28;100.00;102299.88;4989987;28;20038;-64
2022/09/22 03:20:41;;;;;;;18.77;17.20;;;;;;;5.28;100.00;102305.94;4989591;28;20099;-64
2022/09/22 03:23:07;;;;;;;18.23;16.73;;;;;;;5.27;100.00;102301.56;4989286;28;20461;-64
2022/09/22 03:25:32;;;;;;;16.63;15.33;;;;;;;5.26;100.00;102304.00;4989430;28;20026;-64
2022/09/22 03:27:57;;;;;;;18.30;16.60;;;;;;;5.22;100.00;102302.88;4989510;28;20102;-64
2022/09/22 03:30:23;;;;;;;18.57;16.57;;;;;;;5.22;100.00;102297.72;4989692;28;20061;-64
2022/09/22 03:32:48;;;;;;;18.97;17.27;;;;;;;5.21;100.00;102295.03;4988710;28;20478;-64
2022/09/22 03:35:14;;;;;;;17.53;15.80;;;;;;;5.18;100.00;102293.13;4989528;28;20446;-64
2022/09/22 03:37:39;;;;;;;17.90;16.30;;;;;;;5.14;100.00;102293.69;4989596;28;20037;-64
2022/09/22 03:40:05;;;;;;;17.97;16.33;;;;;;;5.12;100.00;102287.53;4989263;28;20073;-64
2022/09/22 03:42:31;;;;;;;17.07;15.47;;;;;;;5.09;100.00;102288.16;5005587;28;20053;-64
2022/09/22 03:44:57;;;;;;;18.50;17.00;;;;;;;5.05;100.00;102289.59;5027751;28;20037;-64
2022/09/22 03:47:22;;;;;;;18.77;16.97;;;;;;;5.04;100.00;102292.06;5028290;28;20025;-64
2022/09/22 03:49:48;;;;;;;18.63;16.93;;;;;;;5.03;100.00;102287.69;5028354;28;20122;-64
2022/09/22 03:52:13;;;;;;;19.03;17.37;;;;;;;5.03;100.00;102288.59;5027603;28;20580;-64
2022/09/22 03:54:38;;;;;;;18.87;17.27;;;;;;;5.03;100.00;102288.59;5028063;28;20021;-64
2022/09/22 03:57:04;;;;;;;19.03;17.40;;;;;;;5.03;100.00;102290.28;5028625;28;20025;-64
2022/09/22 03:59:29;;;;;;;18.53;16.93;;;;;;;5.00;100.00;102290.91;5028073;28;20021;-64
2022/09/22 04:01:55;;;;;;;19.03;17.30;;;;;;;5.00;100.00;102285.78;5028244;28;20025;-64
2022/09/22 04:04:20;;;;;;;18.97;17.27;;;;;;;4.98;100.00;102286.44;5027355;28;20068;-64
2022/09/22 04:06:45;;;;;;;20.17;18.43;;;;;;;4.96;100.00;102288.91;5028221;28;20190;-64
2022/09/22 04:09:10;;;;;;;18.87;17.27;;;;;;;4.95;100.00;102286.22;5028055;28;20025;-64
2022/09/22 04:11:36;;;;;;;17.83;16.00;;;;;;;4.91;100.00;102279.94;5027868;28;20505;-64
2022/09/22 04:14:03;;;;;;;17.57;16.00;;;;;;;4.89;100.00;102281.50;5027832;28;20465;-64
2022/09/22 04:16:29;;;;;;;17.77;16.10;;;;;;;4.88;100.00;102280.59;5027415;28;20030;-63
2022/09/22 04:18:54;;;;;;;17.97;16.47;;;;;;;4.87;100.00;102272.75;5027795;28;20035;-63
2022/09/22 04:21:20;;;;;;;18.97;17.20;;;;;;;4.87;100.00;102276.25;5027572;28;20072;-64
2022/09/22 04:23:45;;;;;;;18.20;16.50;;;;;;;4.84;100.00;102277.66;5027552;28;20057;-64
2022/09/22 04:26:10;;;;;;;17.77;16.10;;;;;;;4.84;100.00;102277.66;5027581;28;20017;-63
2022/09/22 04:28:35;;;;;;;17.43;15.83;;;;;;;4.83;100.00;102273.28;5027808;28;20444;-64
2022/09/22 04:31:01;;;;;;;18.13;16.37;;;;;;;4.78;100.00;102271.28;5016045;28;20469;-64
2022/09/22 04:33:26;;;;;;;16.57;15.00;;;;;;;4.74;100.00;102269.22;5028027;28;20711;-64
2022/09/22 04:35:52;;;;;;;17.53;16.13;;;;;;;4.73;100.00;102264.84;5026867;28;20029;-64
2022/09/22 04:38:18;;;;;;;17.53;15.97;;;;;;;4.74;100.00;102271.78;5027743;28;20075;-63
2022/09/22 04:40:44;;;;;;;17.93;16.47;;;;;;;4.73;100.00;102264.84;5029887;28;20039;-64
2022/09/22 04:43:10;;;;;;;17.17;15.57;;;;;;;4.74;100.00;102268.31;5035038;28;20079;-64
2022/09/22 04:45:35;;;;;;;17.10;15.63;;;;;;;4.72;100.00;102267.31;5026504;28;20025;-64
2022/09/22 04:48:01;;;;;;;16.40;15.00;;;;;;;4.69;100.00;102267.97;5025887;28;20124;-63
2022/09/22 04:50:27;;;;;;;16.17;14.87;;;;;;;4.69;100.00;102267.97;5026653;28;20025;-64
2022/09/22 04:52:54;;;;;;;17.23;15.83;;;;;;;4.68;100.00;102268.72;5026719;28;20025;-63
2022/09/22 04:55:21;;;;;;;16.07;14.67;;;;;;;4.67;100.00;102269.53;5026895;28;20030;-64
2022/09/22 04:57:51;;;;;;;17.07;15.50;;;;;;;4.66;100.00;102270.28;5029927;28;20427;-64
2022/09/22 05:00:18;;;;;;;16.47;14.97;;;;;;;4.64;100.00;102259.00;5027011;28;20389;-64
2022/09/22 05:02:44;;;;;;;16.63;15.17;;;;;;;4.64;100.00;102275.28;5026959;28;20036;-63
2022/09/22 05:05:10;;;;;;;16.97;15.47;;;;;;;4.65;100.00;102276.19;5027026;28;20441;-64
2022/09/22 05:07:38;;;;;;;17.33;15.77;;;;;;;4.65;100.00;102271.06;5026592;28;20430;-64
2022/09/22 05:10:04;;;;;;;17.80;16.23;;;;;;;4.62;100.00;102270.81;5027011;28;20032;-63
2022/09/22 05:12:30;;;;;;;17.40;15.87;;;;;;;4.59;100.00;102268.03;5026014;28;20025;-64
2022/09/22 05:14:56;;;;;;;18.13;16.30;;;;;;;4.56;100.00;102274.69;5024689;28;20033;-63
2022/09/22 05:17:22;;;;;;;17.07;15.67;;;;;;;4.52;100.00;102275.22;5025160;28;20032;-64
2022/09/22 05:19:47;;;;;;;17.27;15.57;;;;;;;4.49;100.00;102272.41;5033289;28;20461;-64
2022/09/22 05:22:12;;;;;;;18.57;16.77;;;;;;;4.47;100.00;102279.09;5024910;28;20562;-64
2022/09/22 05:24:41;;;;;;;18.17;16.67;;;;;;;4.47;100.00;102278.19;5025613;28;20047;-64
2022/09/22 05:27:06;;;;;;;17.90;16.20;;;;;;;4.46;100.00;102274.75;5026330;28;20096;-64
2022/09/22 05:29:32;;;;;;;18.33;16.63;;;;;;;4.44;100.00;102276.28;5033349;28;20762;-63
2022/09/22 05:31:57;;;;;;;18.47;16.77;;;;;;;4.41;100.00;102276.94;5026676;28;20016;-64
2022/09/22 05:34:22;;;;;;;19.20;17.60;;;;;;;4.42;100.00;102282.97;5033215;28;20072;-63
2022/09/22 05:36:47;;;;;;;19.63;17.83;;;;;;;4.42;100.00;102282.97;5026507;28;20052;-64
2022/09/22 05:39:13;;;;;;;20.33;18.47;;;;;;;4.42;100.00;102285.53;5026227;28;20037;-64
2022/09/22 05:41:38;;;;;;;21.77;19.47;;;;;;;4.40;100.00;102280.28;5036189;28;20021;-64
2022/09/22 05:44:04;;;;;;;20.23;18.53;;;;;;;4.42;100.00;102283.88;5027987;28;20036;-63
2022/09/22 05:46:29;;;;;;;20.47;18.57;;;;;;;4.42;100.00;102285.53;5024754;28;20041;-63
2022/09/22 05:48:54;;;;;;;20.87;19.07;;;;;;;4.43;100.00;102284.75;5041770;28;20340;-64
2022/09/22 05:51:20;;;;;;;19.90;18.23;;;;;;;4.44;100.00;102286.56;5033016;28;20409;-63
2022/09/22 05:53:46;;;;;;;19.80;18.00;;;;;;;4.42;100.00;102289.00;5025659;28;20112;-63
2022/09/22 05:56:11;;;;;;;21.00;19.20;;;;;;;4.42;100.00;102286.44;5008929;28;20079;-64
2022/09/22 05:58:36;;;;;;;19.17;17.47;;;;;;;4.45;100.00;102283.19;5026807;28;20021;-63
2022/09/22 06:01:03;;;;;;;20.67;18.70;;;;;;;4.45;100.00;102290.91;5026302;28;20021;-63
2022/09/22 06:03:28;;;;;;;21.00;19.23;;;;;;;4.47;100.00;102289.38;5024874;28;20057;-62
2022/09/22 06:05:54;;;;;;;22.17;20.17;;;;;;;4.50;100.00;102293.84;5012333;28;20496;-62
2022/09/22 06:08:19;;;;;;;21.03;19.13;;;;;;;4.53;100.00;102297.53;5026967;28;20436;-63
2022/09/22 06:10:44;;;;;;;20.20;18.43;;;;;;;4.56;100.00;102291.78;5028351;28;20416;-63
2022/09/22 06:13:10;;;;;;;19.83;18.13;;;;;;;4.61;100.00;102299.84;5029101;28;20241;-63
2022/09/22 06:15:37;;;;;;;19.37;17.77;;;;;;;4.64;100.00;102295.84;5026912;28;20033;-63
2022/09/22 06:18:05;;;;;;;20.27;18.50;;;;;;;4.70;100.00;102300.56;5028046;28;20021;-62
2022/09/22 06:20:34;;;;;;;19.93;18.20;;;;;;;4.75;100.00;102293.25;5029873;28;20029;-62
2022/09/22 06:22:59;;;;;;;21.77;19.87;;;;;;;4.82;100.00;102292.97;5027171;28;20033;-63
2022/09/22 06:25:27;;;;;;;21.53;19.60;;;;;;;4.88;100.00;102289.94;5027610;28;20037;-62
2022/09/22 06:28:04;;;;;;;20.73;18.73;;;;;;;4.92;100.00;102292.91;5027954;28;20362;-62
2022/09/22 06:30:30;;;;;;;21.57;19.40;;;;;;;4.98;100.00;102282.22;5027425;28;20128;-63
2022/09/22 06:32:55;;;;;;;21.37;19.27;;;;;;;5.04;100.00;102286.91;5028429;28;20109;-63
2022/09/22 06:35:21;;;;;;;21.80;19.90;;;;;;;5.09;100.00;102288.16;5028189;28;20108;-63
2022/09/22 06:37:55;;;;;;;23.20;21.07;;;;;;;5.16;100.00;102281.84;5028203;28;20038;-63
2022/09/22 06:40:23;;;;;;;22.27;20.27;;;;;;;5.24;100.00;102285.00;5011124;28;20029;-63
2022/09/22 06:42:48;;;;;;;22.25;20.17;;;;;;;5.35;100.00;102283.25;5040542;28;20049;-65
2022/09/22 06:45:15;;;;;;;23.80;21.70;;;;;;;5.68;100.00;102278.00;5028957;28;20025;-62
2022/09/22 06:47:41;;;;;;;21.88;20.00;;;;;;;6.06;100.00;102276.53;5029121;28;20523;-63
2022/09/22 06:50:06;;;;;;;20.98;18.88;;;;;;;6.31;100.00;102281.78;5028337;28;20540;-63
2022/09/22 06:52:33;;;;;;;20.23;18.45;;;;;;;6.51;100.00;102284.00;5027960;28;20036;-65
2022/09/22 06:54:59;;;;;;;21.33;19.23;;;;;;;6.65;100.00;102280.75;5028825;28;20340;-63
2022/09/22 06:57:26;;;;;;;20.23;18.33;;;;;;;6.70;100.00;102279.38;5027928;28;20033;-63
2022/09/22 06:59:52;;;;;;;20.30;18.30;;;;;;;6.71;100.00;102278.59;5025250;28;20022;-65
2022/09/22 07:02:17;;;;;;;19.58;17.80;;;;;;;6.70;100.00;102279.38;5036263;28;20033;-65
2022/09/22 07:04:42;;;;;;;20.17;18.45;;;;;;;6.68;100.00;102270.66;5043822;28;20020;-62
2022/09/22 07:07:08;;;;;;;22.60;20.60;;;;;;;6.68;100.00;102270.66;5027512;28;20371;-65
2022/09/22 07:09:34;;;;;;;22.05;20.05;;;;;;;6.69;100.00;102268.97;5044662;28;20025;-65
2022/09/22 07:11:59;;;;;;;22.15;19.98;;;;;;;6.73;100.00;102274.44;5046162;28;20078;-65
2022/09/22 07:14:24;;;;;;;23.05;20.95;;;;;;;6.78;100.00;102268.72;5046016;28;20021;-64
2022/09/22 07:16:51;;;;;;;23.92;21.75;;;;;;;6.87;100.00;102266.81;5025860;28;20037;-65
2022/09/22 07:19:16;;;;;;;23.77;21.67;;;;;;;6.98;100.00;102275.25;5043238;28;20098;-64
2022/09/22 07:21:43;;;;;;;29.95;27.17;;;;;;;7.25;100.00;102277.09;5039841;28;20473;-64
2022/09/22 07:24:08;;;;;;;33.28;30.42;;;;;;;7.90;100.00;102276.25;5025615;28;20031;-65
2022/09/22 07:26:36;;;;;;;28.88;26.17;;;;;;;8.86;100.00;102269.38;5042576;28;20400;-64
2022/09/22 07:29:04;;;;;;;27.55;24.85;;;;;;;9.75;100.00;102272.03;5018982;28;20120;-65
2022/09/22 07:31:33;;;;;;;21.08;19.30;;;;;;;10.56;100.00;102263.63;5042141;28;20032;-64
2022/09/22 07:33:59;;;;;;;18.63;16.83;;;;;;;11.22;100.00;102261.91;5047335;28;20040;-65
2022/09/22 07:36:25;;;;;;;15.82;14.43;;;;;;;11.91;100.00;102260.13;5041832;28;20475;-64
2022/09/22 07:38:53;;;;;;;14.05;12.00;;;;;;;12.32;100.00;102259.50;5043460;28;20491;-65
2022/09/22 07:41:27;;;;;;;16.38;12.27;;;;;;;12.88;100.00;102261.16;5039333;28;20067;-65
2022/09/22 07:43:55;;;;;;;13.05;11.73;;;;;;;13.41;100.00;102261.75;5029494;28;20115;-65
2022/09/22 07:46:21;;;;;;;12.57;10.82;;;;;;;13.86;96.64;102260.16;5027078;28;20032;-65
2022/09/22 07:48:46;;;;;;;11.68;10.32;;;;;;;14.29;94.38;102257.47;5027472;28;20104;-65
2022/09/22 07:51:23;;;;;;;11.80;10.43;;;;;;;14.71;88.21;102268.63;5027546;28;20036;-62
2022/09/22 07:54:08;;;;;;;10.82;9.40;;;;;;;14.88;87.34;102264.94;5028050;28;20068;-64
2022/09/22 07:56:35;;;;;;;10.35;9.35;;;;;;;15.16;85.81;102266.78;5027658;28;20036;-63
2022/09/22 07:59:03;;;;;;;9.85;9.05;;;;;;;15.18;79.80;102265.13;5027739;28;20026;-66
2022/09/22 08:01:31;;;;;;;10.13;9.10;;;;;;;15.41;82.68;102262.41;5028332;28;20021;-65
2022/09/22 08:03:56;;;;;;;9.23;8.30;;;;;;;15.57;81.31;102259.50;5028198;28;20033;-63
2022/09/22 08:06:22;;;;;;;10.75;9.27;;;;;;;15.84;79.00;102253.44;5027345;28;20032;-66
2022/09/22 08:08:54;;;;;;;10.57;9.48;;;;;;;16.31;81.04;102254.91;5027134;28;20389;-63
2022/09/22 08:11:22;;;;;;;10.50;8.70;;;;;;;16.46;75.12;102253.56;5026559;28;20103;-64
2022/09/22 08:13:49;;;;;;;9.60;8.80;;;;;;;16.56;72.56;102257.38;5027457;28;20100;-65
2022/09/22 08:16:17;;;;;;;9.68;8.77;;;;;;;16.64;74.87;102255.84;5027677;28;20080;-64
2022/09/22 08:18:42;;;;;;;10.60;8.60;;;;;;;16.74;75.75;102253.50;5027154;28;20337;-64
2022/09/22 08:21:08;;;;;;;9.73;8.73;;;;;;;16.95;75.26;102254.94;5026935;28;20055;-65
2022/09/22 08:23:34;;;;;;;9.30;8.27;;;;;;;16.89;73.18;102253.94;5029709;28;20383;-63
2022/09/22 08:26:07;;;;;;;9.52;8.30;;;;;;;17.10;71.71;102246.66;5031881;28;20028;-63
2022/09/22 08:28:33;;;;;;;9.52;8.40;;;;;;;16.86;67.61;102247.72;5024880;28;20492;-63
2022/09/22 08:30:59;;;;;;;8.77;7.97;;;;;;;17.16;70.11;102244.25;5026062;28;20029;-63
2022/09/22 08:33:26;;;;;;;9.20;8.30;;;;;;;17.24;72.23;102234.84;5026969;28;20029;-63
2022/09/22 08:36:02;;;;;;;9.57;8.60;;;;;;;17.43;72.27;102235.31;5027749;28;20032;-63
2022/09/22 08:38:32;;;;;;;8.48;7.65;;;;;;;17.66;71.04;102237.63;5027809;28;20489;-63
2022/09/22 08:41:14;;;;;;;9.50;8.50;;;;;;;17.64;71.29;102239.34;5027208;28;20021;-64
2022/09/22 08:44:01;;;;;;;9.82;7.28;;;;;;;17.81;70.23;102241.50;5026023;28;20160;-63
2022/09/22 08:46:48;;;;;;;9.70;8.70;;;;;;;17.90;68.39;102236.44;5017763;28;20086;-62
2022/09/22 08:52:17;;;;;;;8.90;8.10;;;;;;;18.08;67.97;102235.13;5026598;28;20092;-62
2022/09/22 08:54:44;;;;;;;8.60;7.90;;;;;;;17.95;66.24;102233.94;5026914;28;20029;-62
2022/09/22 08:57:24;;;;;;;8.77;7.90;;;;;;;17.77;67.50;102238.78;5027313;28;20025;-63
2022/09/22 09:00:16;;;;;;;9.30;7.87;;;;;;;17.95;67.47;102245.28;5038901;28;20031;-63
2022/09/22 09:02:54;;;;;;;8.13;7.32;;;;;;;18.04;66.81;102238.50;5027368;28;20260;-62
2022/09/22 09:05:34;;;;;;;8.80;7.95;;;;;;;18.02;69.79;102242.84;5026682;28;20184;-63
2022/09/22 09:08:14;;;;;;;11.20;7.13;;;;;;;17.88;67.99;102235.53;5026959;28;20343;-63
2022/09/22 09:10:52;;;;;;;9.32;7.88;;;;;;;17.96;67.62;102251.44;5038324;28;20033;-62
2022/09/22 09:13:44;;;;;;;8.27;7.40;;;;;;;17.95;68.14;102253.16;5027389;28;20055;-62
2022/09/22 09:16:37;;;;;;;9.20;7.05;;;;;;;17.88;66.51;102251.28;5038676;28;20768;-63
2022/09/22 09:19:12;;;;;;;8.85;8.05;;;;;;;17.95;67.02;102255.78;5027202;28;20025;-62
2022/09/22 09:21:44;;;;;;;12.13;7.60;;;;;;;17.87;65.10;102249.47;5019913;28;20013;-63
2022/09/22 09:24:17;;;;;;;7.80;6.43;;;;;;;17.76;67.14;102244.88;5027036;28;20513;-63
2022/09/22 09:26:45;;;;;;;8.98;6.90;;;;;;;17.79;67.27;102245.81;5026828;28;20021;-63
2022/09/22 09:29:19;;;;;;;7.90;7.10;;;;;;;17.64;69.49;102244.56;5026774;28;20029;-63
2022/09/22 09:31:52;;;;;;;8.15;7.18;;;;;;;17.58;70.36;102236.53;5028766;28;20515;-62
2022/09/22 09:34:20;;;;;;;7.25;5.80;;;;;;;17.47;69.45;102241.50;5035030;28;20063;-63
2022/09/22 09:36:54;;;;;;;6.35;5.75;;;;;;;17.44;69.18;102238.81;5026124;28;20021;-63
2022/09/22 09:39:29;;;;;;;6.68;5.93;;;;;;;17.54;69.02;102237.34;5025642;28;20036;-62
2022/09/22 09:41:56;;;;;;;6.43;5.70;;;;;;;17.40;63.31;102240.47;5026547;28;20049;-63
2022/09/22 09:44:29;;;;;;;5.68;5.10;;;;;;;17.42;66.15;102240.50;5032453;28;20053;-63
2022/09/22 09:47:06;;;;;;;8.20;5.47;;;;;;;17.33;67.50;102239.44;5030282;28;20033;-64
2022/09/22 09:49:32;;;;;;;9.30;6.10;;;;;;;17.42;67.41;102236.16;5031046;28;20021;-63
2022/09/22 09:52:00;;;;;;;5.13;4.43;;;;;;;17.34;60.68;102237.72;5034505;28;20032;-63
2022/09/22 09:54:26;;;;;;;6.80;4.40;;;;;;;17.27;59.57;102224.44;5043312;28;20033;-63
2022/09/22 09:57:10;;;;;;;6.53;4.20;;;;;;;17.28;61.47;102244.56;5029159;28;20025;-63
2022/09/22 10:02:38;;;;;;;5.45;4.30;;;;;;;17.17;62.88;102232.91;5031077;28;20037;-63
2022/09/22 10:05:20;;;;;;;6.85;3.63;;;;;;;17.17;59.80;102238.16;5029622;28;20469;-63
2022/09/22 10:07:57;;;;;;;5.20;3.47;;;;;;;17.13;58.47;102231.03;5027637;28;20021;-63
2022/09/22 10:10:28;;;;;;;3.53;3.22;;;;;;;17.04;57.84;102231.66;5030408;28;20493;-63
2022/09/22 10:13:14;;;;;;;4.63;3.58;;;;;;;17.12;60.00;102224.03;5033541;28;20514;-63
2022/09/22 10:15:41;;;;;;;4.70;3.40;;;;;;;17.19;62.42;102225.09;5030336;28;20041;-63
2022/09/22 10:18:32;;;;;;;4.20;3.15;;;;;;;17.25;61.42;102220.88;5028669;28;20019;-63
2022/09/22 10:21:06;;;;;;;3.85;3.08;;;;;;;17.32;60.25;102210.59;5028763;28;20032;-64
2022/09/22 10:23:31;;;;;;;2.90;2.25;;;;;;;17.34;58.79;102208.91;5029201;28;20164;-64
2022/09/22 10:26:15;;;;;;;4.05;2.28;;;;;;;17.43;57.28;102214.34;5029404;28;20124;-63
2022/09/22 10:28:40;;;;;;;3.28;1.83;;;;;;;17.54;58.56;102211.13;5028481;28;20026;-64
2022/09/22 10:31:18;;;;;;;2.38;1.50;;;;;;;17.69;57.20;102219.38;5029797;28;20072;-63
2022/09/22 10:33:58;;;;;;;2.78;1.25;;;;;;;17.76;54.49;102208.19;5028155;28;20489;-64
2022/09/22 10:36:25;;;;;;;2.30;1.40;;;;;;;17.90;56.00;102204.97;5030254;28;20307;-64
2022/09/22 10:38:52;;;;;;;1.75;1.40;;;;;;;17.91;53.73;102190.13;5029977;28;20030;-63
2022/09/22 10:41:22;;;;;;;3.58;1.25;;;;;;;18.02;53.80;102190.38;5032015;28;20329;-64
2022/09/22 10:43:59;;;;;;;3.17;1.10;;;;;;;18.09;52.24;102190.56;5029648;28;20041;-64
2022/09/22 10:46:48;;;;;;;1.50;1.02;;;;;;;18.24;53.79;102194.41;5029866;28;20045;-64
2022/09/22 10:49:27;;;;;;;1.85;1.38;;;;;;;18.34;52.58;102190.22;5029843;28;20029;-65
2022/09/22 10:52:26;;;;;;;2.38;1.40;;;;;;;18.41;51.12;102183.38;5029313;28;20033;-65
2022/09/22 10:55:19;;;;;;;2.40;1.10;;;;;;;18.58;52.18;102183.72;5027599;28;20461;-64
2022/09/22 10:58:03;;;;;;;1.90;1.02;;;;;;;18.75;54.74;102186.66;5029641;28;20093;-64
2022/09/22 11:00:33;;;;;;;1.83;1.48;;;;;;;18.80;49.36;102185.00;5029705;28;20048;-64
2022/09/22 11:03:37;;;;;;;2.17;1.45;;;;;;;18.69;48.20;102187.44;5029155;28;20021;-64
2022/09/22 11:12:24;;;;;;;2.00;1.33;;;;;;;18.50;48.98;102172.16;5028755;28;20508;-64
2022/09/22 11:15:09;;;;;;;1.83;1.35;;;;;;;18.27;51.60;102175.22;5028765;28;20029;-64
2022/09/22 11:17:53;;;;;;;2.17;1.42;;;;;;;18.34;49.18;102175.38;5027120;28;20040;-64
2022/09/22 11:20:35;;;;;;;1.58;1.15;;;;;;;18.41;50.05;102168.50;5028626;28;20377;-64
2022/09/22 11:23:39;;;;;;;2.08;1.48;;;;;;;18.58;49.58;102167.97;5023644;28;20084;-64
2022/09/22 11:26:29;;;;;;;1.13;1.02;;;;;;;18.81;49.76;102164.91;5025334;28;20026;-64
2022/09/22 11:29:06;;;;;;;2.83;1.38;;;;;;;18.87;50.30;102164.13;5017768;28;20064;-64
2022/09/22 11:31:45;;;;;;;3.13;1.25;;;;;;;18.98;49.44;102167.81;5026814;28;20037;-64
2022/09/22 11:34:53;;;;;;;2.58;1.65;;;;;;;18.92;49.25;102166.00;5026827;28;20505;-64
2022/09/22 11:37:49;;;;;;;1.85;1.35;;;;;;;19.18;49.65;102159.44;5000898;28;20049;-63
2022/09/22 11:40:24;;;;;;;2.17;1.33;;;;;;;19.25;50.05;102160.44;5019345;28;20084;-64
2022/09/22 11:43:01;;;;;;;1.50;1.40;;;;;;;19.14;48.69;102157.63;5023330;28;20087;-64